createdAt,value
2022-09-18T09:54:24.497Z,11.49
2022-09-18T09:59:39.771Z,11.57
2022-09-18T10:05:07.990Z,11.58
2022-09-18T10:10:23.507Z,11.39
2022-09-18T10:15:38.637Z,11.43
2022-09-18T10:20:48.386Z,11.29
2022-09-18T10:25:59.708Z,11.13
2022-09-18T10:31:12.444Z,11.04
2022-09-18T10:36:28.716Z,11.04
2022-09-18T10:41:38.142Z,11.06
2022-09-18T10:46:59.268Z,11.03
2022-09-18T10:52:36.094Z,11.03
2022-09-18T10:57:48.780Z,11.06
2022-09-18T11:03:01.834Z,10.82
2022-09-18T11:08:19.462Z,10.79
2022-09-18T11:13:28.794Z,10.74
2022-09-18T11:18:36.880Z,10.73
2022-09-18T11:23:44.208Z,10.56
2022-09-18T11:29:06.614Z,10.45
2022-09-18T11:34:26.870Z,10.29
2022-09-18T11:39:43.120Z,10.15
2022-09-18T11:44:51.650Z,10.16
2022-09-18T11:50:07.011Z,10.24
2022-09-18T11:55:21.835Z,10.35
2022-09-18T12:00:31.761Z,10.42
2022-09-18T12:05:52.578Z,10.44
2022-09-18T12:11:05.019Z,10.32
2022-09-18T12:16:17.570Z,10.28
2022-09-18T12:21:44.666Z,10.33
2022-09-18T12:27:04.169Z,10.40
2022-09-18T12:32:24.668Z,10.48
2022-09-18T12:37:55.677Z,10.53
2022-09-18T12:43:18.722Z,10.59
2022-09-18T12:48:41.197Z,10.59
2022-09-18T12:53:56.665Z,10.54
2022-09-18T12:59:24.305Z,10.47
2022-09-18T13:04:32.521Z,10.24
2022-09-18T13:09:46.253Z,10.08
2022-09-18T13:14:56.903Z,10.02
2022-09-18T13:20:08.646Z,9.95
2022-09-18T13:25:26.070Z,9.85
2022-09-18T13:30:32.278Z,9.79
2022-09-18T13:35:40.436Z,9.63
2022-09-18T13:40:49.836Z,9.49
2022-09-18T13:45:56.715Z,9.44
2022-09-18T13:51:04.286Z,9.37
2022-09-18T13:56:12.951Z,9.37
2022-09-18T14:01:58.522Z,9.31
2022-09-18T14:07:03.444Z,9.25
2022-09-18T14:12:18.097Z,9.19
2022-09-18T14:17:23.207Z,9.13
2022-09-18T14:22:32.671Z,9.06
2022-09-18T14:27:53.646Z,8.99
2022-09-18T14:33:18.869Z,8.97
2022-09-18T14:38:30.511Z,8.87
2022-09-18T14:43:40.632Z,8.77
2022-09-18T14:48:45.516Z,8.62
2022-09-18T14:53:53.048Z,8.46
2022-09-18T14:59:03.306Z,8.35
2022-09-18T15:04:15.465Z,8.24
2022-09-18T15:09:28.599Z,8.14
2022-09-18T15:14:43.951Z,8.06
2022-09-18T15:20:01.251Z,8.02
2022-09-18T15:25:06.340Z,8.01
2022-09-18T15:30:20.003Z,8.00
2022-09-18T15:35:26.485Z,8.01
2022-09-18T15:40:34.141Z,8.01
2022-09-18T15:45:41.760Z,8.00
2022-09-18T15:50:46.535Z,8.01
2022-09-18T15:55:58.241Z,8.03
2022-09-18T16:01:06.996Z,8.08
2022-09-18T16:06:24.113Z,8.11
2022-09-18T16:11:44.692Z,8.12
2022-09-18T16:16:52.139Z,8.10
2022-09-18T16:21:57.355Z,8.14
2022-09-18T16:27:07.375Z,8.13
2022-09-18T16:32:15.572Z,8.14
2022-09-18T16:37:23.324Z,8.16
2022-09-18T16:42:28.036Z,8.12
2022-09-18T16:47:35.417Z,8.11
2022-09-18T16:52:40.363Z,8.10
2022-09-18T16:57:45.497Z,8.03
2022-09-18T17:02:54.100Z,8.01
2022-09-18T17:07:59.066Z,7.97
2022-09-18T17:13:04.150Z,7.95
2022-09-18T17:18:11.982Z,7.96
2022-09-18T17:23:16.933Z,7.91
2022-09-18T17:28:21.928Z,7.83
2022-09-18T17:33:29.346Z,7.80
2022-09-18T17:38:35.817Z,7.77
2022-09-18T17:43:41.460Z,7.71
2022-09-18T17:48:49.318Z,7.75
2022-09-18T17:54:00.510Z,7.78
2022-09-18T17:59:07.520Z,7.77
2022-09-18T18:04:15.859Z,7.78
2022-09-18T18:09:20.420Z,7.79
2022-09-18T18:14:25.927Z,7.83
2022-09-18T18:19:33.191Z,7.86
2022-09-18T18:24:38.528Z,7.89
2022-09-18T18:29:44.036Z,7.91
2022-09-18T18:34:51.207Z,7.93
2022-09-18T18:39:55.808Z,8.02
2022-09-18T18:45:01.366Z,8.06
2022-09-18T18:50:12.515Z,8.08
2022-09-18T18:55:17.954Z,8.07
2022-09-18T19:00:27.361Z,8.07
2022-09-18T19:05:35.196Z,8.07
2022-09-18T19:10:39.703Z,8.01
2022-09-18T19:15:44.259Z,8.00
2022-09-18T19:20:53.735Z,8.00
2022-09-18T19:26:00.139Z,8.05
2022-09-18T19:31:06.860Z,8.09
2022-09-18T19:36:14.299Z,8.13
2022-09-18T19:41:24.641Z,8.16
2022-09-18T19:46:40.728Z,8.15
2022-09-18T19:51:49.319Z,8.18
2022-09-18T19:56:53.867Z,8.22
2022-09-18T20:01:58.792Z,8.25
2022-09-18T20:07:06.182Z,8.24
2022-09-18T20:12:12.806Z,8.26
2022-09-18T20:17:17.403Z,8.25
2022-09-18T20:22:24.564Z,8.22
2022-09-18T20:27:29.097Z,8.13
2022-09-18T20:32:33.663Z,8.09
2022-09-18T20:37:40.868Z,7.99
2022-09-18T20:42:45.488Z,7.91
2022-09-18T20:47:49.919Z,7.78
2022-09-18T20:53:06.204Z,7.69
2022-09-18T20:58:11.421Z,7.55
2022-09-18T21:03:17.570Z,7.47
2022-09-18T21:08:25.980Z,7.43
2022-09-18T21:13:31.480Z,7.44
2022-09-18T21:18:37.567Z,7.43
2022-09-18T21:23:58.581Z,7.45
2022-09-18T21:29:05.247Z,7.44
2022-09-18T21:34:09.684Z,7.43
2022-09-18T21:39:17.155Z,7.45
2022-09-18T21:44:27.031Z,7.49
2022-09-18T21:49:32.930Z,7.47
2022-09-18T21:54:40.035Z,7.46
2022-09-18T21:59:44.779Z,7.48
2022-09-18T22:04:49.386Z,7.44
2022-09-18T22:09:56.816Z,7.45
2022-09-18T22:15:01.272Z,7.50
2022-09-18T22:20:07.233Z,7.51
2022-09-18T22:25:15.448Z,7.56
2022-09-18T22:30:20.200Z,7.57
2022-09-18T22:35:24.628Z,7.62
2022-09-18T22:40:31.645Z,7.67
2022-09-18T22:45:36.141Z,7.68
2022-09-18T22:50:40.834Z,7.67
2022-09-18T22:55:48.180Z,7.65
2022-09-18T23:00:52.563Z,7.72
2022-09-18T23:05:56.931Z,7.72
2022-09-18T23:11:08.614Z,7.73
2022-09-18T23:16:15.169Z,7.72
2022-09-18T23:21:19.998Z,7.69
2022-09-18T23:26:31.127Z,7.71
2022-09-18T23:31:37.715Z,7.71
2022-09-18T23:36:44.808Z,7.79
2022-09-18T23:41:52.280Z,7.81
2022-09-18T23:46:57.501Z,7.79
2022-09-18T23:52:02.711Z,7.77
2022-09-18T23:57:09.969Z,7.72
